Methodist Camp, Iowa
Current Conditions -  °F | °C
As of 7:34 PM on Sunday 21 Dec 2014 (Local Time) from KMJQ Reporting Station
Haze Haze  
Wind Chill: 27°   Ceiling: 400
Heat Index: 37°   Visibility: 5mi
Dew Point: 36°   Wind: 18mph
Humidity: 93%   Direction: 190°S
Pressure: 29.66"   Gusts: 24mph
Location:  43.4265°N, 95.1547°W
Report Text: KMJQ 220134Z AUTO 19016G21KT 5SM BR OVC004 03/02 A2966 RMK AO2
Loading
Personal Weather Stations






























Interactive Weather Map New forecast layout! Learn more

10-Day Weather Forecast

Advertisements
Track Severe Weather on mobile